createdAt,value
2019-04-05T00:00:06.614Z,54.03
2019-04-05T00:02:38.449Z,48.13
2019-04-05T00:05:08.615Z,46.10
2019-04-05T00:07:38.765Z,47.90
2019-04-05T00:10:09.524Z,47.70
2019-04-05T00:12:39.675Z,41.53
2019-04-05T00:15:15.657Z,48.40
2019-04-05T00:17:44.299Z,48.20
2019-04-05T00:20:16.163Z,53.20
2019-04-05T00:22:46.324Z,43.20
2019-04-05T00:25:16.484Z,44.17
2019-04-05T00:27:48.228Z,50.77
2019-04-05T00:30:18.783Z,47.90
2019-04-05T00:32:48.959Z,45.67
2019-04-05T00:35:19.115Z,46.03
2019-04-05T00:37:49.263Z,45.53
2019-04-05T00:40:19.441Z,39.13
2019-04-05T00:42:49.583Z,41.47
2019-04-05T00:45:28.141Z,42.53
2019-04-05T00:47:51.616Z,40.60
2019-04-05T00:50:22.078Z,42.23
2019-04-05T00:53:00.156Z,44.47
2019-04-05T00:55:30.300Z,45.03
2019-04-05T00:58:00.529Z,41.90
2019-04-05T01:00:30.710Z,45.83
2019-04-05T01:03:00.860Z,43.00
2019-04-05T01:05:31.046Z,45.00
2019-04-05T01:08:01.196Z,44.30
2019-04-05T01:10:31.411Z,44.30
2019-04-05T01:13:01.644Z,47.70
2019-04-05T01:15:40.678Z,45.67
2019-04-05T01:18:03.691Z,44.70
2019-04-05T01:20:36.470Z,48.60
2019-04-05T01:23:06.712Z,45.10
2019-04-05T01:25:37.798Z,47.37
2019-04-05T01:28:09.453Z,46.63
2019-04-05T01:30:39.625Z,45.77
2019-04-05T01:33:09.759Z,45.90
2019-04-05T01:35:39.951Z,44.87
2019-04-05T01:38:11.744Z,51.53
2019-04-05T01:40:43.771Z,53.70
2019-04-05T01:43:14.054Z,51.83
2019-04-05T01:45:53.478Z,50.43
2019-04-05T01:48:16.832Z,45.40
2019-04-05T01:50:46.956Z,48.97
2019-04-05T01:53:17.503Z,48.57
2019-04-05T01:55:47.640Z,46.40
2019-04-05T01:58:17.799Z,49.93
2019-04-05T02:00:48.102Z,48.73
2019-04-05T02:03:18.259Z,45.10
2019-04-05T02:05:48.412Z,42.93
2019-04-05T02:08:18.602Z,44.10
2019-04-05T02:10:48.884Z,43.60
2019-04-05T02:13:19.040Z,38.67
2019-04-05T02:15:49.188Z,46.57
2019-04-05T02:18:19.409Z,48.17
2019-04-05T02:20:49.589Z,51.30
2019-04-05T02:23:20.747Z,54.90
2019-04-05T02:25:50.926Z,50.17
2019-04-05T02:28:21.080Z,51.47
2019-04-05T02:30:51.236Z,47.37
2019-04-05T02:33:21.395Z,50.70
2019-04-05T02:35:51.581Z,55.40
2019-04-05T02:38:21.802Z,55.90
2019-04-05T02:40:53.273Z,52.00
2019-04-05T02:43:27.946Z,53.63
2019-04-05T02:45:58.714Z,47.67
2019-04-05T02:48:30.835Z,53.60
2019-04-05T02:51:03.673Z,49.97
2019-04-05T02:53:36.415Z,55.27
2019-04-05T02:56:07.907Z,55.20
2019-04-05T02:58:38.709Z,48.40
2019-04-05T03:01:09.661Z,55.83
2019-04-05T03:03:40.604Z,55.43
2019-04-05T03:06:11.179Z,54.97
2019-04-05T03:08:42.107Z,52.80
2019-04-05T03:11:14.272Z,55.57
2019-04-05T03:13:57.222Z,59.43
2019-04-05T03:16:40.682Z,67.33
2019-04-05T03:19:15.474Z,60.57
2019-04-05T03:21:50.968Z,72.47
2019-04-05T03:24:25.273Z,65.27
2019-04-05T03:27:09.878Z,61.10
2019-04-05T03:29:40.264Z,57.30
2019-04-05T03:32:10.683Z,61.73
2019-04-05T03:34:41.099Z,60.23
2019-04-05T03:37:11.424Z,63.93
2019-04-05T03:39:42.078Z,59.73
2019-04-05T03:42:12.575Z,64.87
2019-04-05T03:44:43.626Z,63.27
2019-04-05T03:47:13.999Z,59.83
2019-04-05T03:49:44.745Z,68.50
2019-04-05T03:52:14.976Z,63.90
2019-04-05T03:54:45.589Z,61.80
2019-04-05T03:57:15.845Z,70.53
2019-04-05T03:59:46.143Z,76.43
2019-04-05T04:02:16.428Z,76.57
2019-04-05T04:04:46.667Z,77.57
2019-04-05T04:07:16.899Z,75.50
2019-04-05T04:09:47.135Z,74.20
2019-04-05T04:12:18.477Z,80.67
2019-04-05T04:14:49.463Z,70.07
2019-04-05T04:17:19.611Z,65.33
2019-04-05T04:19:49.782Z,74.17
2019-04-05T04:22:27.581Z,75.67
2019-04-05T04:24:58.894Z,66.90
2019-04-05T04:27:30.454Z,73.40
2019-04-05T04:30:01.077Z,71.43
2019-04-05T04:32:31.672Z,72.07
2019-04-05T04:35:02.155Z,80.87
2019-04-05T04:37:32.423Z,76.17
2019-04-05T04:40:03.732Z,76.40
2019-04-05T04:42:34.015Z,78.50
2019-04-05T04:45:11.885Z,92.77
2019-04-05T04:47:38.562Z,86.23
2019-04-05T04:50:09.566Z,89.17
2019-04-05T04:52:40.203Z,83.87
2019-04-05T04:55:10.699Z,78.87
2019-04-05T04:57:41.048Z,84.70
2019-04-05T05:00:11.215Z,79.83
2019-04-05T05:02:41.753Z,80.37
2019-04-05T05:05:12.711Z,80.17
2019-04-05T05:07:43.009Z,77.07
2019-04-05T05:10:13.801Z,82.50
2019-04-05T05:12:44.191Z,71.00
2019-04-05T05:15:14.460Z,78.50
2019-04-05T05:17:57.684Z,79.87
2019-04-05T05:20:18.131Z,74.83
2019-04-05T05:22:48.404Z,79.33
2019-04-05T05:25:18.645Z,76.30
2019-04-05T05:27:49.050Z,77.37
2019-04-05T05:30:19.581Z,75.77
2019-04-05T05:32:49.841Z,79.83
2019-04-05T05:35:20.095Z,80.10
2019-04-05T05:37:50.269Z,84.80
2019-04-05T05:40:33.801Z,78.63
2019-04-05T05:42:52.378Z,81.00
2019-04-05T05:45:22.549Z,79.03
2019-04-05T05:47:52.715Z,79.27
2019-04-05T05:50:22.865Z,75.07
2019-04-05T05:52:53.436Z,77.57
2019-04-05T05:55:23.613Z,80.20
2019-04-05T05:57:54.907Z,74.47
2019-04-05T06:00:25.666Z,64.90
2019-04-05T06:02:55.891Z,74.40
2019-04-05T06:05:26.055Z,65.23
2019-04-05T06:07:56.207Z,65.83
2019-04-05T06:10:26.356Z,64.37
2019-04-05T06:12:58.727Z,63.57
2019-04-05T06:15:28.436Z,66.73
2019-04-05T06:18:04.522Z,71.47
2019-04-05T06:20:30.604Z,72.53
2019-04-05T06:23:00.785Z,66.90
2019-04-05T06:25:30.922Z,81.83
2019-04-05T06:28:01.080Z,72.63
2019-04-05T06:30:31.245Z,63.50
2019-04-05T06:33:01.489Z,70.73
2019-04-05T06:35:31.611Z,57.37
2019-04-05T06:38:01.846Z,53.33
2019-04-05T06:40:40.813Z,50.77
2019-04-05T06:43:06.738Z,52.80
2019-04-05T06:45:36.833Z,50.70
2019-04-05T06:48:18.468Z,40.90
2019-04-05T06:50:38.871Z,46.53
2019-04-05T06:53:09.059Z,45.50
2019-04-05T06:55:39.191Z,47.67
2019-04-05T06:58:10.503Z,42.97
2019-04-05T07:00:40.816Z,47.10
2019-04-05T07:03:13.564Z,46.10
2019-04-05T07:05:42.910Z,42.80
2019-04-05T07:08:13.062Z,48.47
2019-04-05T07:10:45.305Z,41.17
2019-04-05T07:13:15.975Z,37.00
2019-04-05T07:15:46.211Z,35.93
2019-04-05T07:18:16.391Z,39.03
2019-04-05T07:20:46.560Z,35.87
2019-04-05T07:23:16.731Z,33.20
2019-04-05T07:25:46.931Z,36.60
2019-04-05T07:28:17.084Z,34.13
2019-04-05T07:30:47.228Z,27.50
2019-04-05T07:33:19.742Z,31.30
2019-04-05T07:35:49.903Z,29.13
2019-04-05T07:38:20.077Z,35.07
2019-04-05T07:40:50.219Z,28.80
2019-04-05T07:43:20.388Z,29.07
2019-04-05T07:45:50.568Z,28.40
2019-04-05T07:48:20.732Z,25.40
2019-04-05T07:50:50.923Z,23.33
2019-04-05T07:53:21.177Z,24.67
2019-04-05T07:55:51.371Z,27.37
2019-04-05T07:58:21.555Z,25.80
2019-04-05T08:00:56.005Z,25.77
2019-04-05T08:03:26.382Z,27.63
2019-04-05T08:05:56.566Z,28.30
2019-04-05T08:08:35.844Z,26.07
2019-04-05T08:11:06.433Z,25.60
2019-04-05T08:13:38.609Z,30.60
2019-04-05T08:16:08.769Z,31.53
2019-04-05T08:18:38.952Z,28.50
2019-04-05T08:21:09.102Z,25.27
2019-04-05T08:23:39.267Z,27.20
2019-04-05T08:26:09.410Z,28.47
2019-04-05T08:28:39.598Z,32.47
2019-04-05T08:31:10.725Z,29.83
2019-04-05T08:33:41.289Z,30.27
2019-04-05T08:36:11.433Z,29.47
2019-04-05T08:38:41.785Z,25.50
2019-04-05T08:41:11.925Z,26.60
2019-04-05T08:43:42.097Z,29.43
2019-04-05T08:46:12.263Z,26.30
2019-04-05T08:48:42.408Z,22.73
2019-04-05T08:51:12.567Z,24.97
2019-04-05T08:53:42.711Z,22.97
2019-04-05T08:56:12.964Z,23.57
2019-04-05T08:58:43.124Z,24.00
2019-04-05T09:01:13.272Z,22.30
2019-04-05T09:03:43.467Z,26.53
2019-04-05T09:06:13.704Z,29.10
2019-04-05T09:08:43.916Z,28.53
2019-04-05T09:11:14.092Z,25.03
2019-04-05T09:13:44.295Z,28.27
2019-04-05T09:16:14.528Z,24.50
2019-04-05T09:18:44.730Z,28.13
2019-04-05T09:21:17.555Z,33.67
2019-04-05T09:23:46.959Z,34.70
2019-04-05T09:26:17.153Z,30.50
2019-04-05T09:28:47.335Z,28.60
2019-04-05T09:31:17.527Z,28.63
2019-04-05T09:33:47.667Z,29.47
2019-04-05T09:36:17.833Z,29.80
2019-04-05T09:38:48.048Z,28.93
2019-04-05T09:41:18.631Z,32.37
2019-04-05T09:43:48.795Z,23.10
2019-04-05T09:46:18.937Z,27.40
2019-04-05T09:48:49.084Z,33.53
2019-04-05T09:51:19.241Z,26.77
2019-04-05T09:53:49.419Z,29.57
2019-04-05T09:56:19.599Z,33.23
2019-04-05T09:58:49.791Z,27.77
2019-04-05T10:01:20.048Z,32.07
2019-04-05T10:03:50.288Z,24.93
2019-04-05T10:06:20.459Z,32.53
2019-04-05T10:08:50.731Z,28.13
2019-04-05T10:11:20.964Z,29.30
2019-04-05T10:13:51.110Z,27.17
2019-04-05T10:16:21.308Z,35.40
2019-04-05T10:18:52.567Z,37.43
2019-04-05T10:21:22.731Z,31.70
2019-04-05T10:23:52.904Z,29.57
2019-04-05T10:26:23.087Z,29.10
2019-04-05T10:28:53.297Z,28.27
2019-04-05T10:31:23.489Z,29.50
2019-04-05T10:33:53.622Z,27.30
2019-04-05T10:36:23.792Z,28.90
2019-04-05T10:38:53.960Z,28.03
2019-04-05T10:41:24.163Z,25.70
2019-04-05T10:43:54.369Z,21.43
2019-04-05T10:46:24.599Z,30.40
2019-04-05T10:48:54.780Z,22.13
2019-04-05T10:51:24.964Z,25.63
2019-04-05T10:53:55.130Z,23.03
2019-04-05T10:56:25.377Z,24.03
2019-04-05T10:58:55.550Z,21.53
2019-04-05T11:01:25.747Z,23.67
2019-04-05T11:03:55.904Z,26.03
2019-04-05T11:06:26.096Z,25.00
2019-04-05T11:08:56.276Z,20.17
2019-04-05T11:11:26.472Z,21.10
2019-04-05T11:13:56.615Z,21.47
2019-04-05T11:16:26.900Z,19.77
2019-04-05T11:18:57.074Z,18.13
2019-04-05T11:21:27.240Z,22.20
2019-04-05T11:23:57.450Z,19.53
2019-04-05T11:26:27.705Z,19.63
2019-04-05T11:28:57.871Z,15.27
2019-04-05T11:32:15.468Z,16.13
2019-04-05T11:34:45.733Z,19.80
2019-04-05T11:37:16.883Z,22.30
2019-04-05T11:39:49.631Z,22.43
2019-04-05T11:42:22.811Z,23.10
2019-04-05T11:44:56.087Z,25.23
2019-04-05T11:47:26.739Z,23.90
2019-04-05T11:49:59.357Z,21.30
2019-04-05T11:52:29.584Z,18.13
2019-04-05T11:54:59.781Z,19.37
2019-04-05T11:57:29.970Z,18.33
2019-04-05T12:00:00.116Z,18.90
2019-04-05T12:02:37.079Z,19.37
2019-04-05T12:05:07.508Z,16.53
2019-04-05T12:07:37.716Z,23.00
2019-04-05T12:10:08.675Z,19.00
2019-04-05T12:12:38.827Z,13.90
2019-04-05T12:15:09.105Z,14.70
2019-04-05T12:17:39.348Z,13.73
2019-04-05T12:20:10.024Z,22.07
2019-04-05T12:22:41.146Z,22.60
2019-04-05T12:25:11.487Z,23.17
2019-04-05T12:27:41.656Z,20.70
2019-04-05T12:30:13.832Z,22.50
2019-04-05T12:32:44.010Z,23.77
2019-04-05T12:35:14.225Z,25.13
2019-04-05T12:37:50.502Z,25.17
2019-04-05T12:40:16.503Z,21.03
2019-04-05T12:42:46.689Z,24.47
2019-04-05T12:45:16.850Z,26.23
2019-04-05T12:47:48.140Z,23.83
2019-04-05T12:50:18.367Z,26.13
2019-04-05T12:52:48.553Z,27.27
2019-04-05T12:55:18.743Z,27.07
2019-04-05T12:57:48.959Z,27.20
2019-04-05T13:00:19.359Z,27.17
2019-04-05T13:02:50.480Z,29.50
2019-04-05T13:05:21.757Z,24.43
2019-04-05T13:07:53.416Z,24.50
2019-04-05T13:10:26.161Z,26.47
2019-04-05T13:12:57.702Z,23.77
2019-04-05T13:15:27.424Z,22.67
2019-04-05T13:18:00.445Z,24.63
2019-04-05T13:20:30.363Z,22.97
2019-04-05T13:23:04.418Z,21.67
2019-04-05T13:25:33.426Z,22.57
2019-04-05T13:28:12.726Z,21.97
2019-04-05T13:30:35.490Z,20.90
2019-04-05T13:33:05.726Z,21.37
2019-04-05T13:35:35.887Z,23.10
2019-04-05T13:38:06.119Z,20.87
2019-04-05T13:40:36.427Z,19.83
2019-04-05T13:43:06.650Z,21.43
2019-04-05T13:45:36.828Z,17.07
2019-04-05T13:48:08.914Z,16.70
2019-04-05T13:50:41.423Z,19.77
2019-04-05T13:53:11.406Z,22.30
2019-04-05T13:55:42.060Z,21.30
2019-04-05T13:58:12.249Z,18.83
2019-04-05T14:00:48.497Z,24.13
2019-04-05T14:03:18.593Z,22.17
2019-04-05T14:05:50.079Z,22.70
2019-04-05T14:08:20.551Z,22.87
2019-04-05T14:10:50.731Z,24.43
2019-04-05T14:13:20.929Z,23.03
2019-04-05T14:15:51.073Z,21.97
2019-04-05T14:18:21.238Z,25.50
2019-04-05T14:20:51.402Z,21.87
2019-04-05T14:23:23.915Z,21.00
2019-04-05T14:25:53.436Z,21.80
2019-04-05T14:28:23.576Z,21.37
2019-04-05T14:30:53.773Z,28.20
2019-04-05T14:33:24.793Z,31.70
2019-04-05T14:35:55.648Z,24.90
2019-04-05T14:38:25.846Z,23.70
2019-04-05T14:40:56.042Z,25.57
2019-04-05T14:43:26.260Z,23.20
2019-04-05T14:45:56.419Z,21.37
2019-04-05T14:48:28.046Z,24.10
2019-04-05T14:50:58.584Z,24.60
2019-04-05T14:53:31.742Z,26.60
2019-04-05T14:56:00.664Z,26.37
2019-04-05T14:58:30.836Z,25.23
2019-04-05T15:01:01.008Z,25.60
2019-04-05T15:03:31.293Z,26.83
2019-04-05T15:06:01.492Z,22.70
2019-04-05T15:08:31.684Z,28.47
2019-04-05T15:11:01.874Z,24.83
2019-04-05T15:13:32.033Z,28.40
2019-04-05T15:16:02.256Z,26.67
2019-04-05T15:18:32.594Z,26.27
2019-04-05T15:21:05.481Z,28.27
2019-04-05T15:23:34.717Z,26.93
2019-04-05T15:26:05.580Z,26.93
2019-04-05T15:28:38.860Z,27.97
2019-04-05T15:31:07.799Z,30.60
2019-04-05T15:33:38.968Z,29.67
2019-04-05T15:36:09.241Z,34.10
2019-04-05T15:38:39.484Z,30.00
2019-04-05T15:41:09.689Z,31.67
2019-04-05T15:43:39.844Z,31.80
2019-04-05T15:46:10.052Z,33.57
2019-04-05T15:48:40.199Z,30.97
2019-04-05T15:51:10.376Z,29.90
2019-04-05T15:53:40.583Z,30.27
2019-04-05T15:56:10.753Z,40.57
2019-04-05T15:58:46.803Z,36.67
2019-04-05T16:01:17.214Z,33.67
2019-04-05T16:03:47.483Z,35.73
2019-04-05T16:06:17.650Z,35.20
2019-04-05T16:08:47.866Z,31.27
2019-04-05T16:11:19.027Z,32.07
2019-04-05T16:13:49.218Z,34.00
2019-04-05T16:16:19.411Z,32.87
2019-04-05T16:18:49.624Z,33.40
2019-04-05T16:21:19.845Z,29.87
2019-04-05T16:23:50.022Z,33.30
2019-04-05T16:26:21.203Z,31.57
2019-04-05T16:28:51.440Z,33.50
2019-04-05T16:31:21.625Z,32.73
2019-04-05T16:33:51.803Z,32.23
2019-04-05T16:36:22.078Z,35.57
2019-04-05T16:38:52.267Z,35.47
2019-04-05T16:41:22.451Z,36.90
2019-04-05T16:43:52.616Z,31.80
2019-04-05T16:46:22.828Z,34.93
2019-04-05T16:48:52.981Z,37.67
2019-04-05T16:51:23.259Z,39.97
2019-04-05T16:54:31.548Z,38.83
2019-04-05T16:57:01.867Z,40.77
2019-04-05T16:59:31.987Z,38.07
2019-04-05T17:02:02.211Z,44.40
2019-04-05T17:04:32.356Z,37.10
2019-04-05T17:07:02.531Z,31.57
2019-04-05T17:09:33.808Z,37.97
2019-04-05T17:12:04.063Z,39.60
2019-04-05T17:14:34.323Z,38.30
2019-04-05T17:17:04.639Z,37.50
2019-04-05T17:19:34.844Z,39.67
2019-04-05T17:22:05.047Z,43.73
2019-04-05T17:24:35.215Z,39.43
2019-04-05T17:27:05.592Z,38.13
2019-04-05T17:29:35.836Z,36.17
2019-04-05T17:32:05.996Z,39.50
2019-04-05T17:34:36.236Z,41.33
2019-04-05T17:37:06.427Z,40.20
2019-04-05T17:39:36.580Z,36.90
2019-04-05T17:42:06.800Z,40.30
2019-04-05T17:44:37.020Z,44.30
2019-04-05T17:47:07.196Z,42.83
2019-04-05T17:49:38.363Z,42.37
2019-04-05T17:52:08.568Z,42.93
2019-04-05T17:54:38.740Z,42.00
2019-04-05T17:57:08.987Z,35.27
2019-04-05T17:59:39.972Z,38.90
2019-04-05T18:02:10.194Z,44.70
2019-04-05T18:04:40.384Z,38.20
2019-04-05T18:07:11.655Z,42.47
2019-04-05T18:09:41.884Z,46.50
2019-04-05T18:12:12.082Z,45.47
2019-04-05T18:14:42.295Z,39.20
2019-04-05T18:17:12.524Z,45.23
2019-04-05T18:19:42.771Z,51.93
2019-04-05T18:22:12.984Z,46.00
2019-04-05T18:24:43.112Z,49.33
2019-04-05T18:27:13.311Z,46.97
2019-04-05T18:29:43.455Z,47.27
2019-04-05T18:32:13.695Z,47.57
2019-04-05T18:34:43.853Z,48.33
2019-04-05T18:37:14.048Z,57.77
2019-04-05T18:39:44.233Z,62.30
2019-04-05T18:42:14.413Z,59.17
2019-04-05T18:44:44.589Z,54.53
2019-04-05T18:47:14.801Z,61.00
2019-04-05T18:49:45.040Z,60.63
2019-04-05T18:52:15.239Z,64.27
2019-04-05T18:54:45.452Z,59.67
2019-04-05T18:57:15.629Z,61.07
2019-04-05T18:59:45.820Z,62.47
2019-04-05T19:02:16.057Z,63.80
2019-04-05T19:04:46.246Z,67.20
2019-04-05T19:07:16.441Z,62.30
2019-04-05T19:09:46.589Z,69.47
2019-04-05T19:12:16.762Z,68.97
2019-04-05T19:14:46.971Z,67.67
2019-04-05T19:17:23.909Z,85.60
2019-04-05T19:19:49.039Z,62.53
2019-04-05T19:22:19.249Z,72.50
2019-04-05T19:24:49.420Z,72.43
2019-04-05T19:27:19.714Z,65.47
2019-04-05T19:29:50.860Z,71.40
2019-04-05T19:50:06.512Z,71.57
2019-04-05T19:52:36.696Z,57.60
2019-04-05T19:55:07.694Z,57.50
2019-04-05T19:57:37.935Z,60.00
2019-04-05T20:00:08.422Z,63.43
2019-04-05T20:02:38.656Z,55.03
2019-04-05T20:05:09.079Z,59.00
2019-04-05T20:07:39.387Z,62.83
2019-04-05T20:10:09.694Z,63.60
2019-04-05T20:12:40.140Z,59.00
2019-04-05T20:15:10.425Z,57.33
2019-04-05T20:17:40.617Z,62.87
2019-04-05T20:20:11.939Z,66.57
2019-04-05T20:22:42.259Z,60.00
2019-04-05T20:25:12.545Z,72.77
2019-04-05T20:27:42.756Z,65.33
2019-04-05T20:30:13.227Z,61.20
2019-04-05T20:32:43.530Z,62.77
2019-04-05T20:35:13.794Z,65.13
2019-04-05T20:37:43.955Z,62.83
2019-04-05T20:40:14.265Z,64.23
2019-04-05T20:42:44.507Z,67.27
2019-04-05T20:45:15.584Z,71.07
2019-04-05T20:47:45.756Z,67.47
2019-04-05T20:50:15.918Z,65.33
2019-04-05T20:52:46.081Z,55.83
2019-04-05T20:55:17.246Z,59.93
2019-04-05T20:57:47.424Z,62.77
2019-04-05T21:00:18.299Z,64.47
2019-04-05T21:02:48.486Z,58.60
2019-04-05T21:05:25.390Z,64.90
2019-04-05T21:07:50.524Z,62.23
2019-04-05T21:10:20.715Z,63.00
2019-04-05T21:12:50.886Z,66.00
2019-04-05T21:15:21.063Z,60.37
2019-04-05T21:17:51.235Z,65.17
2019-04-05T21:20:21.408Z,63.43
2019-04-05T21:22:51.569Z,58.77
2019-04-05T21:25:21.757Z,66.73
2019-04-05T21:27:51.951Z,64.57
2019-04-05T21:30:22.171Z,70.43
2019-04-05T21:32:52.323Z,61.87
2019-04-05T21:35:22.487Z,68.73
2019-04-05T21:37:52.650Z,67.67
2019-04-05T21:40:22.887Z,72.50
2019-04-05T21:42:53.084Z,63.30
2019-04-05T21:45:23.258Z,72.93
2019-04-05T21:47:53.419Z,64.20
2019-04-05T21:50:23.611Z,64.80
2019-04-05T21:52:53.768Z,78.00
2019-04-05T21:55:24.005Z,69.10
2019-04-05T21:57:54.179Z,69.13
2019-04-05T22:00:27.973Z,62.47
2019-04-05T22:02:59.733Z,64.20
2019-04-05T22:05:29.931Z,69.30
2019-04-05T22:08:00.115Z,69.70
2019-04-05T22:10:30.412Z,68.83
2019-04-05T22:13:00.569Z,68.90
2019-04-05T22:15:30.788Z,73.20
2019-04-05T22:18:00.912Z,64.97
2019-04-05T22:20:31.064Z,74.70
2019-04-05T22:23:01.239Z,71.10
2019-04-05T22:25:31.435Z,79.90
2019-04-05T22:28:01.583Z,76.97
2019-04-05T22:30:31.779Z,72.37
2019-04-05T22:33:01.936Z,78.93
2019-04-05T22:35:32.202Z,75.10
2019-04-05T22:38:03.323Z,77.40
2019-04-05T22:40:33.597Z,73.97
2019-04-05T22:43:03.772Z,74.70
2019-04-05T22:45:33.947Z,73.47
2019-04-05T22:48:04.083Z,69.50
2019-04-05T22:50:34.276Z,76.00
2019-04-05T22:53:04.445Z,74.70
2019-04-05T22:55:34.687Z,82.50
2019-04-05T22:58:04.949Z,80.50
2019-04-05T23:00:35.336Z,72.70
2019-04-05T23:03:05.503Z,80.30
2019-04-05T23:05:36.074Z,78.53
2019-04-05T23:08:06.269Z,76.97
2019-04-05T23:10:36.477Z,74.53
2019-04-05T23:13:06.704Z,82.17
2019-04-05T23:15:36.899Z,77.63
2019-04-05T23:18:07.057Z,87.07
2019-04-05T23:20:37.286Z,83.57
2019-04-05T23:23:07.439Z,83.47
2019-04-05T23:25:37.611Z,83.53
2019-04-05T23:28:07.764Z,92.17
2019-04-05T23:30:37.924Z,85.77
2019-04-05T23:33:08.143Z,82.27
2019-04-05T23:35:38.335Z,92.60
2019-04-05T23:38:08.476Z,84.23
2019-04-05T23:40:38.656Z,85.27
2019-04-05T23:43:08.800Z,84.13
2019-04-05T23:45:39.046Z,82.90
2019-04-05T23:48:09.183Z,83.20
2019-04-05T23:50:39.370Z,83.23
2019-04-05T23:53:09.537Z,87.37
2019-04-05T23:55:39.697Z,85.67
2019-04-05T23:58:09.851Z,83.60
